sensor_id;sensor_type;location;lat;lon;timestamp;P1;durP1;ratioP1;P2;durP2;ratioP2
27491;SDS011;14927;51.210;6.838;2023-08-21T00:01:29;3.05;;;1.60;;
27491;SDS011;14927;51.210;6.838;2023-08-21T00:04:14;5.40;;;1.58;;
27491;SDS011;14927;51.210;6.838;2023-08-21T00:06:59;7.95;;;1.40;;
27491;SDS011;14927;51.210;6.838;2023-08-21T00:09:43;2.47;;;1.30;;
27491;SDS011;14927;51.210;6.838;2023-08-21T00:12:29;4.93;;;1.85;;
27491;SDS011;14927;51.210;6.838;2023-08-21T00:15:13;2.65;;;1.25;;
27491;SDS011;14927;51.210;6.838;2023-08-21T00:17:58;3.22;;;1.45;;
27491;SDS011;14927;51.210;6.838;2023-08-21T00:20:44;3.15;;;1.15;;
27491;SDS011;14927;51.210;6.838;2023-08-21T00:23:29;3.50;;;1.20;;
27491;SDS011;14927;51.210;6.838;2023-08-21T00:26:14;2.35;;;1.17;;
27491;SDS011;14927;51.210;6.838;2023-08-21T00:28:59;3.75;;;1.20;;
27491;SDS011;14927;51.210;6.838;2023-08-21T00:31:44;2.80;;;1.17;;
27491;SDS011;14927;51.210;6.838;2023-08-21T00:34:28;5.90;;;1.42;;
27491;SDS011;14927;51.210;6.838;2023-08-21T00:37:13;2.47;;;1.20;;
27491;SDS011;14927;51.210;6.838;2023-08-21T00:39:58;4.60;;;1.35;;
27491;SDS011;14927;51.210;6.838;2023-08-21T00:42:43;7.60;;;1.48;;
27491;SDS011;14927;51.210;6.838;2023-08-21T00:45:27;3.80;;;1.08;;
27491;SDS011;14927;51.210;6.838;2023-08-21T00:48:12;3.53;;;1.45;;
27491;SDS011;14927;51.210;6.838;2023-08-21T00:50:58;3.53;;;1.60;;
27491;SDS011;14927;51.210;6.838;2023-08-21T00:53:42;4.78;;;1.95;;
27491;SDS011;14927;51.210;6.838;2023-08-21T00:56:28;2.90;;;1.23;;
27491;SDS011;14927;51.210;6.838;2023-08-21T00:59:15;4.63;;;1.60;;
27491;SDS011;14927;51.210;6.838;2023-08-21T01:01:59;3.17;;;1.58;;
27491;SDS011;14927;51.210;6.838;2023-08-21T01:04:44;10.63;;;2.30;;
27491;SDS011;14927;51.210;6.838;2023-08-21T01:07:30;9.00;;;1.75;;
27491;SDS011;14927;51.210;6.838;2023-08-21T01:10:26;4.20;;;1.60;;
27491;SDS011;14927;51.210;6.838;2023-08-21T01:13:24;2.75;;;1.13;;
27491;SDS011;14927;51.210;6.838;2023-08-21T01:16:20;2.28;;;1.20;;
27491;SDS011;14927;51.210;6.838;2023-08-21T01:19:08;1.90;;;1.30;;
27491;SDS011;14927;51.210;6.838;2023-08-21T01:24:51;3.80;;;1.33;;
27491;SDS011;14927;51.210;6.838;2023-08-21T01:27:35;4.63;;;1.60;;
27491;SDS011;14927;51.210;6.838;2023-08-21T01:30:20;3.67;;;1.13;;
27491;SDS011;14927;51.210;6.838;2023-08-21T01:33:06;6.55;;;1.73;;
27491;SDS011;14927;51.210;6.838;2023-08-21T01:35:54;7.88;;;1.95;;
27491;SDS011;14927;51.210;6.838;2023-08-21T01:38:41;3.92;;;1.55;;
27491;SDS011;14927;51.210;6.838;2023-08-21T01:41:27;3.78;;;1.38;;
27491;SDS011;14927;51.210;6.838;2023-08-21T01:44:12;4.40;;;1.40;;
27491;SDS011;14927;51.210;6.838;2023-08-21T01:46:56;5.38;;;1.58;;
27491;SDS011;14927;51.210;6.838;2023-08-21T01:49:41;3.15;;;1.40;;
27491;SDS011;14927;51.210;6.838;2023-08-21T01:52:26;12.05;;;2.30;;
27491;SDS011;14927;51.210;6.838;2023-08-21T01:55:10;5.68;;;1.52;;
27491;SDS011;14927;51.210;6.838;2023-08-21T01:57:55;3.80;;;1.58;;
27491;SDS011;14927;51.210;6.838;2023-08-21T02:00:39;4.82;;;1.65;;
27491;SDS011;14927;51.210;6.838;2023-08-21T02:03:25;4.82;;;1.77;;
27491;SDS011;14927;51.210;6.838;2023-08-21T02:06:09;2.63;;;1.25;;
27491;SDS011;14927;51.210;6.838;2023-08-21T02:08:54;4.53;;;1.63;;
27491;SDS011;14927;51.210;6.838;2023-08-21T02:11:39;5.68;;;1.58;;
27491;SDS011;14927;51.210;6.838;2023-08-21T02:14:23;5.40;;;1.80;;
27491;SDS011;14927;51.210;6.838;2023-08-21T02:17:08;4.60;;;1.65;;
27491;SDS011;14927;51.210;6.838;2023-08-21T02:19:53;5.82;;;1.90;;
27491;SDS011;14927;51.210;6.838;2023-08-21T02:22:38;4.25;;;1.38;;
27491;SDS011;14927;51.210;6.838;2023-08-21T02:25:22;2.88;;;1.70;;
27491;SDS011;14927;51.210;6.838;2023-08-21T02:28:07;8.13;;;2.05;;
27491;SDS011;14927;51.210;6.838;2023-08-21T02:30:52;3.10;;;1.42;;
27491;SDS011;14927;51.210;6.838;2023-08-21T02:33:39;4.38;;;1.70;;
27491;SDS011;14927;51.210;6.838;2023-08-21T02:36:24;5.93;;;2.35;;
27491;SDS011;14927;51.210;6.838;2023-08-21T02:39:09;4.15;;;1.58;;
27491;SDS011;14927;51.210;6.838;2023-08-21T02:41:53;2.10;;;1.42;;
27491;SDS011;14927;51.210;6.838;2023-08-21T02:44:38;3.67;;;1.70;;
27491;SDS011;14927;51.210;6.838;2023-08-21T02:47:23;3.13;;;1.92;;
27491;SDS011;14927;51.210;6.838;2023-08-21T02:50:09;5.43;;;2.65;;
27491;SDS011;14927;51.210;6.838;2023-08-21T02:52:54;8.27;;;2.88;;
27491;SDS011;14927;51.210;6.838;2023-08-21T02:55:38;6.13;;;2.50;;
27491;SDS011;14927;51.210;6.838;2023-08-21T02:58:23;5.53;;;2.60;;
27491;SDS011;14927;51.210;6.838;2023-08-21T03:01:08;8.10;;;2.22;;
27491;SDS011;14927;51.210;6.838;2023-08-21T03:03:52;4.90;;;2.17;;
27491;SDS011;14927;51.210;6.838;2023-08-21T03:06:37;5.72;;;2.15;;
27491;SDS011;14927;51.210;6.838;2023-08-21T03:09:22;9.35;;;2.97;;
27491;SDS011;14927;51.210;6.838;2023-08-21T03:12:07;5.70;;;3.03;;
27491;SDS011;14927;51.210;6.838;2023-08-21T03:14:52;7.90;;;3.45;;
27491;SDS011;14927;51.210;6.838;2023-08-21T03:17:37;10.40;;;3.30;;
27491;SDS011;14927;51.210;6.838;2023-08-21T03:20:21;10.68;;;3.60;;
27491;SDS011;14927;51.210;6.838;2023-08-21T03:23:06;10.50;;;3.72;;
27491;SDS011;14927;51.210;6.838;2023-08-21T03:25:53;6.80;;;3.45;;
27491;SDS011;14927;51.210;6.838;2023-08-21T03:28:38;7.30;;;4.10;;
27491;SDS011;14927;51.210;6.838;2023-08-21T03:31:23;11.25;;;4.28;;
27491;SDS011;14927;51.210;6.838;2023-08-21T03:34:07;11.02;;;4.75;;
27491;SDS011;14927;51.210;6.838;2023-08-21T03:36:52;10.60;;;4.93;;
27491;SDS011;14927;51.210;6.838;2023-08-21T03:39:37;13.10;;;5.20;;
27491;SDS011;14927;51.210;6.838;2023-08-21T03:42:23;11.73;;;5.18;;
27491;SDS011;14927;51.210;6.838;2023-08-21T03:45:07;16.42;;;5.80;;
27491;SDS011;14927;51.210;6.838;2023-08-21T03:47:52;8.90;;;4.70;;
27491;SDS011;14927;51.210;6.838;2023-08-21T03:50:36;12.35;;;5.80;;
27491;SDS011;14927;51.210;6.838;2023-08-21T03:53:21;11.68;;;5.50;;
27491;SDS011;14927;51.210;6.838;2023-08-21T03:56:06;11.50;;;5.45;;
27491;SDS011;14927;51.210;6.838;2023-08-21T03:58:51;12.20;;;5.82;;
27491;SDS011;14927;51.210;6.838;2023-08-21T04:01:36;9.93;;;5.18;;
27491;SDS011;14927;51.210;6.838;2023-08-21T04:04:20;10.82;;;5.28;;
27491;SDS011;14927;51.210;6.838;2023-08-21T04:07:05;12.95;;;4.70;;
27491;SDS011;14927;51.210;6.838;2023-08-21T04:09:50;11.35;;;3.90;;
27491;SDS011;14927;51.210;6.838;2023-08-21T04:12:34;3.65;;;2.50;;
27491;SDS011;14927;51.210;6.838;2023-08-21T04:15:21;10.20;;;3.42;;
27491;SDS011;14927;51.210;6.838;2023-08-21T04:18:06;6.22;;;3.10;;
27491;SDS011;14927;51.210;6.838;2023-08-21T04:20:51;8.52;;;3.08;;
27491;SDS011;14927;51.210;6.838;2023-08-21T04:23:35;6.90;;;2.67;;
27491;SDS011;14927;51.210;6.838;2023-08-21T04:26:20;6.90;;;2.75;;
27491;SDS011;14927;51.210;6.838;2023-08-21T04:29:04;7.43;;;2.13;;
27491;SDS011;14927;51.210;6.838;2023-08-21T04:31:49;9.60;;;3.13;;
27491;SDS011;14927;51.210;6.838;2023-08-21T04:34:34;5.60;;;2.42;;
27491;SDS011;14927;51.210;6.838;2023-08-21T04:37:19;6.53;;;2.13;;
27491;SDS011;14927;51.210;6.838;2023-08-21T04:40:04;5.05;;;2.00;;
27491;SDS011;14927;51.210;6.838;2023-08-21T04:42:49;6.72;;;2.33;;
27491;SDS011;14927;51.210;6.838;2023-08-21T04:45:34;6.97;;;1.75;;
27491;SDS011;14927;51.210;6.838;2023-08-21T04:48:20;6.03;;;1.83;;
27491;SDS011;14927;51.210;6.838;2023-08-21T04:51:05;3.60;;;1.63;;
27491;SDS011;14927;51.210;6.838;2023-08-21T04:53:50;5.88;;;1.50;;
27491;SDS011;14927;51.210;6.838;2023-08-21T04:56:35;8.05;;;2.42;;
27491;SDS011;14927;51.210;6.838;2023-08-21T04:59:19;5.50;;;1.70;;
27491;SDS011;14927;51.210;6.838;2023-08-21T05:02:04;6.05;;;2.30;;
27491;SDS011;14927;51.210;6.838;2023-08-21T05:04:48;5.25;;;2.10;;
27491;SDS011;14927;51.210;6.838;2023-08-21T05:07:33;6.00;;;1.75;;
27491;SDS011;14927;51.210;6.838;2023-08-21T05:10:19;7.35;;;1.98;;
27491;SDS011;14927;51.210;6.838;2023-08-21T05:13:04;5.68;;;1.88;;
27491;SDS011;14927;51.210;6.838;2023-08-21T05:15:55;6.97;;;2.17;;
27491;SDS011;14927;51.210;6.838;2023-08-21T05:18:41;5.28;;;1.88;;
27491;SDS011;14927;51.210;6.838;2023-08-21T05:21:26;8.93;;;2.20;;
27491;SDS011;14927;51.210;6.838;2023-08-21T05:24:11;6.80;;;2.28;;
27491;SDS011;14927;51.210;6.838;2023-08-21T05:26:56;9.77;;;2.28;;
27491;SDS011;14927;51.210;6.838;2023-08-21T05:29:40;3.75;;;2.17;;
27491;SDS011;14927;51.210;6.838;2023-08-21T05:32:25;10.18;;;2.70;;
27491;SDS011;14927;51.210;6.838;2023-08-21T05:35:09;5.30;;;2.00;;
27491;SDS011;14927;51.210;6.838;2023-08-21T05:37:54;7.38;;;2.38;;
27491;SDS011;14927;51.210;6.838;2023-08-21T05:40:40;10.00;;;2.72;;
27491;SDS011;14927;51.210;6.838;2023-08-21T05:43:28;4.97;;;2.58;;
27491;SDS011;14927;51.210;6.838;2023-08-21T05:46:19;7.00;;;2.80;;
27491;SDS011;14927;51.210;6.838;2023-08-21T05:49:03;7.15;;;2.80;;
27491;SDS011;14927;51.210;6.838;2023-08-21T05:51:48;6.10;;;2.50;;
27491;SDS011;14927;51.210;6.838;2023-08-21T05:54:32;5.50;;;2.03;;
27491;SDS011;14927;51.210;6.838;2023-08-21T05:57:17;7.75;;;2.80;;
27491;SDS011;14927;51.210;6.838;2023-08-21T06:00:02;14.63;;;3.38;;
27491;SDS011;14927;51.210;6.838;2023-08-21T06:02:47;7.53;;;3.67;;
27491;SDS011;14927;51.210;6.838;2023-08-21T06:05:31;6.63;;;3.45;;
27491;SDS011;14927;51.210;6.838;2023-08-21T06:08:16;8.15;;;3.95;;
27491;SDS011;14927;51.210;6.838;2023-08-21T06:11:01;10.40;;;4.35;;
27491;SDS011;14927;51.210;6.838;2023-08-21T06:13:47;7.97;;;3.80;;
27491;SDS011;14927;51.210;6.838;2023-08-21T06:16:31;7.38;;;4.50;;
27491;SDS011;14927;51.210;6.838;2023-08-21T06:19:16;8.75;;;4.40;;
27491;SDS011;14927;51.210;6.838;2023-08-21T06:22:01;9.88;;;3.75;;
27491;SDS011;14927;51.210;6.838;2023-08-21T06:24:46;9.07;;;3.55;;
27491;SDS011;14927;51.210;6.838;2023-08-21T06:27:30;8.00;;;4.28;;
27491;SDS011;14927;51.210;6.838;2023-08-21T06:30:15;10.77;;;3.17;;
27491;SDS011;14927;51.210;6.838;2023-08-21T06:33:01;8.77;;;3.38;;
27491;SDS011;14927;51.210;6.838;2023-08-21T06:35:46;7.68;;;3.53;;
27491;SDS011;14927;51.210;6.838;2023-08-21T06:38:30;16.13;;;3.38;;
27491;SDS011;14927;51.210;6.838;2023-08-21T06:41:15;6.22;;;2.28;;
27491;SDS011;14927;51.210;6.838;2023-08-21T06:44:00;6.60;;;2.65;;
27491;SDS011;14927;51.210;6.838;2023-08-21T06:46:44;11.73;;;2.90;;
27491;SDS011;14927;51.210;6.838;2023-08-21T06:49:31;5.47;;;2.58;;
27491;SDS011;14927;51.210;6.838;2023-08-21T06:52:16;8.52;;;2.83;;
27491;SDS011;14927;51.210;6.838;2023-08-21T06:55:01;5.25;;;2.13;;
27491;SDS011;14927;51.210;6.838;2023-08-21T06:57:46;9.05;;;2.90;;
27491;SDS011;14927;51.210;6.838;2023-08-21T07:00:31;9.70;;;2.95;;
27491;SDS011;14927;51.210;6.838;2023-08-21T07:03:15;6.55;;;2.70;;
27491;SDS011;14927;51.210;6.838;2023-08-21T07:06:00;10.93;;;3.42;;
27491;SDS011;14927;51.210;6.838;2023-08-21T07:08:44;10.80;;;3.00;;
27491;SDS011;14927;51.210;6.838;2023-08-21T07:11:29;5.90;;;2.92;;
27491;SDS011;14927;51.210;6.838;2023-08-21T07:14:14;9.18;;;2.65;;
27491;SDS011;14927;51.210;6.838;2023-08-21T07:16:58;6.88;;;2.85;;
27491;SDS011;14927;51.210;6.838;2023-08-21T07:19:43;10.20;;;3.38;;
27491;SDS011;14927;51.210;6.838;2023-08-21T07:22:28;6.47;;;3.45;;
27491;SDS011;14927;51.210;6.838;2023-08-21T07:25:13;7.50;;;3.28;;
27491;SDS011;14927;51.210;6.838;2023-08-21T07:27:57;6.10;;;3.05;;
27491;SDS011;14927;51.210;6.838;2023-08-21T07:30:42;5.88;;;3.20;;
27491;SDS011;14927;51.210;6.838;2023-08-21T07:33:27;8.32;;;3.60;;
27491;SDS011;14927;51.210;6.838;2023-08-21T07:36:12;6.15;;;3.55;;
27491;SDS011;14927;51.210;6.838;2023-08-21T07:39:00;10.73;;;3.92;;
27491;SDS011;14927;51.210;6.838;2023-08-21T07:41:45;9.50;;;4.15;;
27491;SDS011;14927;51.210;6.838;2023-08-21T07:44:29;12.10;;;4.80;;
27491;SDS011;14927;51.210;6.838;2023-08-21T07:47:14;10.82;;;3.95;;
27491;SDS011;14927;51.210;6.838;2023-08-21T07:49:59;8.02;;;4.18;;
27491;SDS011;14927;51.210;6.838;2023-08-21T07:52:44;10.32;;;3.92;;
27491;SDS011;14927;51.210;6.838;2023-08-21T07:55:29;7.95;;;4.60;;
27491;SDS011;14927;51.210;6.838;2023-08-21T07:58:17;10.20;;;4.68;;
27491;SDS011;14927;51.210;6.838;2023-08-21T08:01:02;5.35;;;3.60;;
27491;SDS011;14927;51.210;6.838;2023-08-21T08:03:48;8.35;;;4.40;;
27491;SDS011;14927;51.210;6.838;2023-08-21T08:06:33;9.07;;;3.95;;
27491;SDS011;14927;51.210;6.838;2023-08-21T08:09:18;7.80;;;3.83;;
27491;SDS011;14927;51.210;6.838;2023-08-21T08:12:03;9.07;;;3.50;;
27491;SDS011;14927;51.210;6.838;2023-08-21T08:14:48;9.38;;;3.22;;
27491;SDS011;14927;51.210;6.838;2023-08-21T08:17:33;4.57;;;2.97;;
27491;SDS011;14927;51.210;6.838;2023-08-21T08:20:17;5.70;;;3.28;;
27491;SDS011;14927;51.210;6.838;2023-08-21T08:23:03;10.10;;;4.40;;
27491;SDS011;14927;51.210;6.838;2023-08-21T08:25:47;6.85;;;3.60;;
27491;SDS011;14927;51.210;6.838;2023-08-21T08:28:32;8.75;;;3.50;;
27491;SDS011;14927;51.210;6.838;2023-08-21T08:31:17;14.32;;;4.57;;
27491;SDS011;14927;51.210;6.838;2023-08-21T08:34:02;8.90;;;3.05;;
27491;SDS011;14927;51.210;6.838;2023-08-21T08:36:47;7.13;;;2.90;;
27491;SDS011;14927;51.210;6.838;2023-08-21T08:39:32;7.32;;;3.45;;
27491;SDS011;14927;51.210;6.838;2023-08-21T08:42:17;6.57;;;3.15;;
27491;SDS011;14927;51.210;6.838;2023-08-21T08:45:03;5.57;;;3.13;;
27491;SDS011;14927;51.210;6.838;2023-08-21T08:47:49;8.77;;;3.72;;
27491;SDS011;14927;51.210;6.838;2023-08-21T08:50:34;9.70;;;3.40;;
27491;SDS011;14927;51.210;6.838;2023-08-21T08:53:19;7.38;;;3.47;;
27491;SDS011;14927;51.210;6.838;2023-08-21T08:56:04;11.88;;;3.40;;
27491;SDS011;14927;51.210;6.838;2023-08-21T08:58:48;9.35;;;3.00;;
27491;SDS011;14927;51.210;6.838;2023-08-21T09:01:33;8.57;;;3.08;;
27491;SDS011;14927;51.210;6.838;2023-08-21T09:04:18;5.03;;;2.80;;
27491;SDS011;14927;51.210;6.838;2023-08-21T09:07:09;13.95;;;3.47;;
27491;SDS011;14927;51.210;6.838;2023-08-21T09:09:56;6.97;;;3.33;;
27491;SDS011;14927;51.210;6.838;2023-08-21T09:12:44;5.97;;;2.80;;
27491;SDS011;14927;51.210;6.838;2023-08-21T09:15:30;5.40;;;3.20;;
27491;SDS011;14927;51.210;6.838;2023-08-21T09:18:16;9.82;;;3.28;;
27491;SDS011;14927;51.210;6.838;2023-08-21T09:21:01;9.43;;;3.55;;
27491;SDS011;14927;51.210;6.838;2023-08-21T09:23:46;9.98;;;3.30;;
27491;SDS011;14927;51.210;6.838;2023-08-21T09:26:32;6.05;;;3.10;;
27491;SDS011;14927;51.210;6.838;2023-08-21T09:29:17;5.78;;;3.30;;
27491;SDS011;14927;51.210;6.838;2023-08-21T09:32:02;6.80;;;3.40;;
27491;SDS011;14927;51.210;6.838;2023-08-21T09:34:48;6.88;;;3.65;;
27491;SDS011;14927;51.210;6.838;2023-08-21T09:37:33;6.65;;;3.00;;
27491;SDS011;14927;51.210;6.838;2023-08-21T09:40:18;6.05;;;3.50;;
27491;SDS011;14927;51.210;6.838;2023-08-21T09:43:04;4.60;;;2.90;;
27491;SDS011;14927;51.210;6.838;2023-08-21T09:45:50;7.07;;;3.63;;
27491;SDS011;14927;51.210;6.838;2023-08-21T09:48:38;6.47;;;2.97;;
27491;SDS011;14927;51.210;6.838;2023-08-21T09:51:23;6.50;;;3.50;;
27491;SDS011;14927;51.210;6.838;2023-08-21T09:54:09;5.80;;;2.80;;
27491;SDS011;14927;51.210;6.838;2023-08-21T09:56:55;4.82;;;2.67;;
27491;SDS011;14927;51.210;6.838;2023-08-21T09:59:40;6.63;;;2.80;;
27491;SDS011;14927;51.210;6.838;2023-08-21T10:02:25;6.32;;;3.05;;
27491;SDS011;14927;51.210;6.838;2023-08-21T10:05:11;7.45;;;3.00;;
27491;SDS011;14927;51.210;6.838;2023-08-21T10:07:59;7.70;;;3.40;;
27491;SDS011;14927;51.210;6.838;2023-08-21T10:10:46;13.55;;;4.75;;
27491;SDS011;14927;51.210;6.838;2023-08-21T10:13:31;10.35;;;4.55;;
27491;SDS011;14927;51.210;6.838;2023-08-21T10:16:17;6.68;;;3.78;;
27491;SDS011;14927;51.210;6.838;2023-08-21T10:19:03;4.15;;;3.03;;
27491;SDS011;14927;51.210;6.838;2023-08-21T10:21:54;6.82;;;3.03;;
27491;SDS011;14927;51.210;6.838;2023-08-21T10:24:40;6.72;;;3.38;;
27491;SDS011;14927;51.210;6.838;2023-08-21T10:27:34;8.20;;;3.47;;
27491;SDS011;14927;51.210;6.838;2023-08-21T10:30:20;6.07;;;4.10;;
27491;SDS011;14927;51.210;6.838;2023-08-21T10:33:11;6.07;;;3.20;;
27491;SDS011;14927;51.210;6.838;2023-08-21T10:35:56;8.45;;;3.72;;
27491;SDS011;14927;51.210;6.838;2023-08-21T10:42:09;5.88;;;3.22;;
27491;SDS011;14927;51.210;6.838;2023-08-21T10:44:58;6.72;;;2.78;;
27491;SDS011;14927;51.210;6.838;2023-08-21T10:47:58;8.77;;;2.65;;
27491;SDS011;14927;51.210;6.838;2023-08-21T10:50:44;9.13;;;2.72;;
27491;SDS011;14927;51.210;6.838;2023-08-21T10:53:31;4.47;;;2.47;;
27491;SDS011;14927;51.210;6.838;2023-08-21T10:56:19;4.85;;;2.60;;
27491;SDS011;14927;51.210;6.838;2023-08-21T10:59:05;6.97;;;2.67;;
27491;SDS011;14927;51.210;6.838;2023-08-21T11:01:56;7.03;;;2.15;;
27491;SDS011;14927;51.210;6.838;2023-08-21T11:04:40;8.85;;;2.65;;
27491;SDS011;14927;51.210;6.838;2023-08-21T11:07:28;30.33;;;2.78;;
27491;SDS011;14927;51.210;6.838;2023-08-21T11:10:18;5.20;;;2.55;;
27491;SDS011;14927;51.210;6.838;2023-08-21T11:13:06;9.77;;;2.53;;
27491;SDS011;14927;51.210;6.838;2023-08-21T11:16:24;5.30;;;2.10;;
27491;SDS011;14927;51.210;6.838;2023-08-21T11:19:03;7.57;;;2.58;;
27491;SDS011;14927;51.210;6.838;2023-08-21T11:21:51;6.53;;;1.83;;
27491;SDS011;14927;51.210;6.838;2023-08-21T11:27:21;4.45;;;2.17;;
27491;SDS011;14927;51.210;6.838;2023-08-21T11:30:10;4.43;;;2.25;;
27491;SDS011;14927;51.210;6.838;2023-08-21T11:35:51;8.00;;;2.40;;
27491;SDS011;14927;51.210;6.838;2023-08-21T11:38:37;4.25;;;2.20;;
27491;SDS011;14927;51.210;6.838;2023-08-21T11:41:24;5.38;;;2.22;;
27491;SDS011;14927;51.210;6.838;2023-08-21T11:44:15;5.90;;;2.55;;
27491;SDS011;14927;51.210;6.838;2023-08-21T11:47:00;12.50;;;2.25;;
27491;SDS011;14927;51.210;6.838;2023-08-21T11:49:47;5.32;;;1.83;;
27491;SDS011;14927;51.210;6.838;2023-08-21T11:52:34;5.90;;;1.73;;
27491;SDS011;14927;51.210;6.838;2023-08-21T11:55:22;5.45;;;2.20;;
27491;SDS011;14927;51.210;6.838;2023-08-21T11:58:09;5.88;;;1.75;;
27491;SDS011;14927;51.210;6.838;2023-08-21T12:00:53;3.95;;;1.73;;
27491;SDS011;14927;51.210;6.838;2023-08-21T12:03:39;4.55;;;2.03;;
27491;SDS011;14927;51.210;6.838;2023-08-21T12:06:24;5.38;;;2.00;;
27491;SDS011;14927;51.210;6.838;2023-08-21T12:09:10;7.15;;;2.47;;
27491;SDS011;14927;51.210;6.838;2023-08-21T12:11:57;6.13;;;1.85;;
27491;SDS011;14927;51.210;6.838;2023-08-21T12:14:42;4.13;;;1.80;;
27491;SDS011;14927;51.210;6.838;2023-08-21T12:17:27;3.90;;;1.67;;
27491;SDS011;14927;51.210;6.838;2023-08-21T12:20:11;4.03;;;1.60;;
27491;SDS011;14927;51.210;6.838;2023-08-21T12:22:56;6.68;;;2.20;;
27491;SDS011;14927;51.210;6.838;2023-08-21T12:25:43;9.02;;;1.90;;
27491;SDS011;14927;51.210;6.838;2023-08-21T12:28:41;7.15;;;1.63;;
27491;SDS011;14927;51.210;6.838;2023-08-21T12:31:25;6.60;;;1.85;;
27491;SDS011;14927;51.210;6.838;2023-08-21T12:34:12;3.55;;;1.60;;
27491;SDS011;14927;51.210;6.838;2023-08-21T12:36:57;9.20;;;1.98;;
27491;SDS011;14927;51.210;6.838;2023-08-21T12:39:44;5.78;;;1.90;;
27491;SDS011;14927;51.210;6.838;2023-08-21T12:42:30;3.60;;;1.85;;
27491;SDS011;14927;51.210;6.838;2023-08-21T12:45:14;5.85;;;1.65;;
27491;SDS011;14927;51.210;6.838;2023-08-21T12:48:04;4.03;;;1.55;;
27491;SDS011;14927;51.210;6.838;2023-08-21T12:50:48;4.35;;;1.63;;
27491;SDS011;14927;51.210;6.838;2023-08-21T12:53:34;6.32;;;2.35;;
27491;SDS011;14927;51.210;6.838;2023-08-21T12:56:22;8.43;;;2.33;;
27491;SDS011;14927;51.210;6.838;2023-08-21T12:59:07;3.95;;;1.70;;
27491;SDS011;14927;51.210;6.838;2023-08-21T13:01:51;4.57;;;2.20;;
27491;SDS011;14927;51.210;6.838;2023-08-21T13:04:36;4.72;;;1.80;;
27491;SDS011;14927;51.210;6.838;2023-08-21T13:07:21;5.22;;;1.58;;
27491;SDS011;14927;51.210;6.838;2023-08-21T13:10:06;5.05;;;1.70;;
27491;SDS011;14927;51.210;6.838;2023-08-21T13:12:52;4.30;;;1.70;;
27491;SDS011;14927;51.210;6.838;2023-08-21T13:15:40;5.07;;;1.73;;
27491;SDS011;14927;51.210;6.838;2023-08-21T13:18:28;4.50;;;1.40;;
27491;SDS011;14927;51.210;6.838;2023-08-21T13:21:21;4.55;;;1.92;;
27491;SDS011;14927;51.210;6.838;2023-08-21T13:24:05;2.63;;;1.48;;
27491;SDS011;14927;51.210;6.838;2023-08-21T13:26:56;3.92;;;1.67;;
27491;SDS011;14927;51.210;6.838;2023-08-21T13:29:45;5.70;;;1.52;;
27491;SDS011;14927;51.210;6.838;2023-08-21T13:32:34;3.45;;;1.58;;
27491;SDS011;14927;51.210;6.838;2023-08-21T13:35:18;4.15;;;1.80;;
27491;SDS011;14927;51.210;6.838;2023-08-21T13:38:05;5.20;;;1.80;;
27491;SDS011;14927;51.210;6.838;2023-08-21T13:40:52;7.50;;;2.20;;
27491;SDS011;14927;51.210;6.838;2023-08-21T13:43:37;5.05;;;1.70;;
27491;SDS011;14927;51.210;6.838;2023-08-21T13:46:33;3.95;;;1.98;;
27491;SDS011;14927;51.210;6.838;2023-08-21T13:49:21;3.55;;;1.40;;
27491;SDS011;14927;51.210;6.838;2023-08-21T13:52:05;4.63;;;1.60;;
27491;SDS011;14927;51.210;6.838;2023-08-21T13:54:52;5.15;;;1.55;;
27491;SDS011;14927;51.210;6.838;2023-08-21T13:57:42;2.85;;;1.60;;
27491;SDS011;14927;51.210;6.838;2023-08-21T14:00:30;5.95;;;1.40;;
27491;SDS011;14927;51.210;6.838;2023-08-21T14:03:14;6.55;;;1.63;;
27491;SDS011;14927;51.210;6.838;2023-08-21T14:06:00;3.35;;;1.67;;
27491;SDS011;14927;51.210;6.838;2023-08-21T14:08:45;5.43;;;1.75;;
27491;SDS011;14927;51.210;6.838;2023-08-21T14:11:30;6.70;;;1.73;;
27491;SDS011;14927;51.210;6.838;2023-08-21T14:14:19;5.75;;;1.70;;
27491;SDS011;14927;51.210;6.838;2023-08-21T14:17:07;4.72;;;1.52;;
27491;SDS011;14927;51.210;6.838;2023-08-21T14:19:51;7.72;;;1.70;;
27491;SDS011;14927;51.210;6.838;2023-08-21T14:22:37;6.38;;;1.88;;
27491;SDS011;14927;51.210;6.838;2023-08-21T14:25:22;5.15;;;2.20;;
27491;SDS011;14927;51.210;6.838;2023-08-21T14:28:07;9.93;;;1.65;;
27491;SDS011;14927;51.210;6.838;2023-08-21T14:30:51;3.30;;;1.67;;
27491;SDS011;14927;51.210;6.838;2023-08-21T14:33:37;3.20;;;1.55;;
27491;SDS011;14927;51.210;6.838;2023-08-21T14:36:21;6.13;;;1.60;;
27491;SDS011;14927;51.210;6.838;2023-08-21T14:39:06;4.78;;;1.83;;
27491;SDS011;14927;51.210;6.838;2023-08-21T14:41:54;7.22;;;1.52;;
27491;SDS011;14927;51.210;6.838;2023-08-21T14:44:42;4.75;;;1.85;;
27491;SDS011;14927;51.210;6.838;2023-08-21T14:47:26;7.88;;;2.17;;
27491;SDS011;14927;51.210;6.838;2023-08-21T14:50:11;7.10;;;1.98;;
27491;SDS011;14927;51.210;6.838;2023-08-21T14:52:56;4.30;;;1.90;;
27491;SDS011;14927;51.210;6.838;2023-08-21T14:55:40;6.30;;;1.67;;
27491;SDS011;14927;51.210;6.838;2023-08-21T14:58:25;5.22;;;1.80;;
27491;SDS011;14927;51.210;6.838;2023-08-21T15:01:09;4.13;;;1.55;;
27491;SDS011;14927;51.210;6.838;2023-08-21T15:03:54;8.35;;;2.28;;
27491;SDS011;14927;51.210;6.838;2023-08-21T15:06:39;4.95;;;1.80;;
27491;SDS011;14927;51.210;6.838;2023-08-21T15:09:28;6.82;;;2.15;;
27491;SDS011;14927;51.210;6.838;2023-08-21T15:12:14;3.97;;;1.75;;
27491;SDS011;14927;51.210;6.838;2023-08-21T15:14:59;4.18;;;1.50;;
27491;SDS011;14927;51.210;6.838;2023-08-21T15:17:44;6.60;;;2.50;;
27491;SDS011;14927;51.210;6.838;2023-08-21T15:20:29;7.00;;;2.00;;
27491;SDS011;14927;51.210;6.838;2023-08-21T15:23:13;4.90;;;1.65;;
27491;SDS011;14927;51.210;6.838;2023-08-21T15:25:58;5.05;;;1.42;;
27491;SDS011;14927;51.210;6.838;2023-08-21T15:28:43;3.78;;;1.60;;
27491;SDS011;14927;51.210;6.838;2023-08-21T15:31:27;6.03;;;1.90;;
27491;SDS011;14927;51.210;6.838;2023-08-21T15:34:12;5.30;;;1.90;;
27491;SDS011;14927;51.210;6.838;2023-08-21T15:36:57;5.25;;;1.90;;
27491;SDS011;14927;51.210;6.838;2023-08-21T15:39:44;5.60;;;2.03;;
27491;SDS011;14927;51.210;6.838;2023-08-21T15:42:28;7.30;;;1.98;;
27491;SDS011;14927;51.210;6.838;2023-08-21T15:45:13;4.82;;;1.60;;
27491;SDS011;14927;51.210;6.838;2023-08-21T15:47:57;5.38;;;1.70;;
27491;SDS011;14927;51.210;6.838;2023-08-21T15:50:42;5.30;;;1.90;;
27491;SDS011;14927;51.210;6.838;2023-08-21T15:53:27;4.57;;;1.83;;
27491;SDS011;14927;51.210;6.838;2023-08-21T15:56:11;2.60;;;1.83;;
27491;SDS011;14927;51.210;6.838;2023-08-21T15:58:56;5.32;;;2.17;;
27491;SDS011;14927;51.210;6.838;2023-08-21T16:01:41;15.20;;;2.10;;
27491;SDS011;14927;51.210;6.838;2023-08-21T16:04:26;6.00;;;1.92;;
27491;SDS011;14927;51.210;6.838;2023-08-21T16:07:10;3.60;;;1.73;;
27491;SDS011;14927;51.210;6.838;2023-08-21T16:09:55;5.60;;;2.53;;
27491;SDS011;14927;51.210;6.838;2023-08-21T16:12:40;6.40;;;2.42;;
27491;SDS011;14927;51.210;6.838;2023-08-21T16:15:24;6.80;;;2.40;;
27491;SDS011;14927;51.210;6.838;2023-08-21T16:18:09;6.63;;;2.25;;
27491;SDS011;14927;51.210;6.838;2023-08-21T16:20:54;5.90;;;1.90;;
27491;SDS011;14927;51.210;6.838;2023-08-21T16:23:38;3.63;;;1.90;;
27491;SDS011;14927;51.210;6.838;2023-08-21T16:26:23;6.80;;;2.20;;
27491;SDS011;14927;51.210;6.838;2023-08-21T16:29:08;5.90;;;2.78;;
27491;SDS011;14927;51.210;6.838;2023-08-21T16:31:55;7.90;;;2.25;;
27491;SDS011;14927;51.210;6.838;2023-08-21T16:34:39;6.95;;;2.58;;
27491;SDS011;14927;51.210;6.838;2023-08-21T16:37:24;8.82;;;2.22;;
27491;SDS011;14927;51.210;6.838;2023-08-21T16:40:09;7.22;;;2.50;;
27491;SDS011;14927;51.210;6.838;2023-08-21T16:42:55;4.55;;;2.08;;
27491;SDS011;14927;51.210;6.838;2023-08-21T16:45:40;6.10;;;2.45;;
27491;SDS011;14927;51.210;6.838;2023-08-21T16:48:26;6.43;;;1.95;;